Time;durP1;ratioP1;P1;durP2;ratioP2;P2;SDS_P1;SDS_P2;PMS_P1;PMS_P2;Temp;Humidity;BMP_temperature;BMP_pressure;BME280_temperature;BME280_humidity;BME280_pressure;Samples;Min_cycle;Max_cycle;Signal;HPM_P1;HPM_P2
2024/01/24 00:01:13;;;;;;;8.23;1.73;;;31.00;78.40;;;;;;4939183;29;20608;-68
2024/01/24 00:03:40;;;;;;;5.43;1.65;;;31.00;77.50;;;;;;4935931;29;20528;-69
2024/01/24 00:06:08;;;;;;;7.95;1.80;;;31.10;77.60;;;;;;4942936;29;20023;-69
2024/01/24 00:08:40;;;;;;;6.88;1.35;;;31.50;78.60;;;;;;4937454;28;20079;-68
2024/01/24 00:11:08;;;;;;;6.20;1.40;;;31.40;75.80;;;;;;4933438;29;20039;-69
2024/01/24 00:13:35;;;;;;;6.15;1.23;;;31.40;74.70;;;;;;4952492;28;20461;-69
2024/01/24 00:16:04;;;;;;;8.30;1.70;;;31.30;74.80;;;;;;4938899;28;20031;-69
2024/01/24 00:18:32;;;;;;;5.78;1.15;;;31.20;74.10;;;;;;4936899;29;20473;-68
2024/01/24 00:20:59;;;;;;;6.40;1.17;;;31.40;73.50;;;;;;4952211;28;20034;-70
2024/01/24 00:23:27;;;;;;;6.30;1.27;;;31.60;74.70;;;;;;4939424;28;20074;-69
2024/01/24 00:25:54;;;;;;;6.45;1.40;;;32.00;72.50;;;;;;4955615;28;20166;-69
2024/01/24 00:28:26;;;;;;;4.45;1.08;;;32.10;72.80;;;;;;4939025;29;20520;-69
2024/01/24 00:30:54;;;;;;;3.10;1.20;;;32.30;73.20;;;;;;4943468;29;20031;-69
2024/01/24 00:33:22;;;;;;;4.93;1.10;;;32.30;72.00;;;;;;4941152;29;20031;-68
2024/01/24 00:35:53;;;;;;;5.50;1.10;;;32.20;71.20;;;;;;4936127;28;20473;-68
2024/01/24 00:38:21;;;;;;;4.90;1.48;;;32.20;71.10;;;;;;4955827;28;20027;-68
2024/01/24 00:40:48;;;;;;;7.93;1.38;;;32.00;72.60;;;;;;4951076;28;20475;-69
2024/01/24 00:43:16;;;;;;;5.78;1.52;;;32.30;72.40;;;;;;4943210;28;20465;-68
2024/01/24 00:45:43;;;;;;;5.30;1.23;;;32.60;71.10;;;;;;4935255;29;20032;-69
2024/01/24 00:48:10;;;;;;;7.45;1.50;;;32.20;71.10;;;;;;4935767;29;20175;-69
2024/01/24 00:50:38;;;;;;;4.32;1.23;;;31.80;72.10;;;;;;4949942;28;20563;-69
2024/01/24 00:53:06;;;;;;;4.97;1.20;;;32.20;71.90;;;;;;4942433;28;20043;-69
2024/01/24 00:55:34;;;;;;;7.90;2.03;;;32.20;71.00;;;;;;4937478;29;20102;-68
2024/01/24 00:58:01;;;;;;;4.82;1.65;;;32.30;70.90;;;;;;4943124;28;20024;-68
2024/01/24 01:00:29;;;;;;;3.40;1.10;;;32.60;70.80;;;;;;4935433;29;20035;-68
2024/01/24 01:02:56;;;;;;;9.13;1.90;;;32.70;69.40;;;;;;4940707;29;20023;-69
2024/01/24 01:05:24;;;;;;;4.45;1.33;;;32.70;69.70;;;;;;4939093;28;20031;-67
2024/01/24 01:07:52;;;;;;;6.20;1.60;;;32.90;69.70;;;;;;4940839;28;20395;-68
2024/01/24 01:10:19;;;;;;;4.07;1.42;;;32.70;69.50;;;;;;4943480;28;20034;-68
2024/01/24 01:12:46;;;;;;;7.38;1.55;;;32.90;71.50;;;;;;4940734;28;20047;-68
2024/01/24 01:15:14;;;;;;;6.95;1.48;;;32.50;69.10;;;;;;4942577;28;20067;-69
2024/01/24 01:17:41;;;;;;;7.10;1.70;;;32.50;69.50;;;;;;4937350;28;20027;-69
2024/01/24 01:20:14;;;;;;;6.03;1.40;;;32.20;71.60;;;;;;4947155;28;20035;-69
2024/01/24 01:22:41;;;;;;;7.47;1.85;;;32.30;70.40;;;;;;4940101;28;20385;-69
2024/01/24 01:25:09;;;;;;;6.50;1.48;;;32.00;72.10;;;;;;4937605;29;20107;-68
2024/01/24 01:27:36;;;;;;;8.23;1.77;;;32.00;72.00;;;;;;4938736;28;20101;-69
2024/01/24 01:30:04;;;;;;;4.47;1.25;;;31.80;70.80;;;;;;4947145;28;20493;-68
2024/01/24 01:32:33;;;;;;;6.90;1.67;;;31.40;72.10;;;;;;4940561;28;20106;-68
2024/01/24 01:35:01;;;;;;;7.13;1.38;;;30.80;73.00;;;;;;4944832;28;20039;-68
2024/01/24 01:37:28;;;;;;;9.05;2.03;;;30.70;75.40;;;;;;4943399;28;20380;-68
2024/01/24 01:39:56;;;;;;;6.03;1.40;;;30.70;74.40;;;;;;4936179;28;20039;-70
2024/01/24 01:42:23;;;;;;;7.03;1.67;;;30.70;75.50;;;;;;4938702;28;20067;-68
2024/01/24 01:44:50;;;;;;;4.88;1.60;;;30.90;74.10;;;;;;4935750;28;20034;-69
2024/01/24 01:47:18;;;;;;;5.53;1.40;;;30.80;74.50;;;;;;4936265;28;20032;-69
2024/01/24 01:49:48;;;;;;;6.63;1.50;;;30.80;76.40;;;;;;4938922;28;20519;-70
2024/01/24 01:52:16;;;;;;;7.25;1.60;;;30.80;76.60;;;;;;4937517;28;20043;-70
2024/01/24 01:54:44;;;;;;;6.63;1.58;;;30.80;76.30;;;;;;4936276;28;20032;-70
2024/01/24 01:57:12;;;;;;;5.60;1.65;;;31.10;76.40;;;;;;4943112;28;20126;-69
2024/01/24 01:59:43;;;;;;;6.57;1.50;;;31.30;75.10;;;;;;4940390;28;20024;-70
2024/01/24 02:02:13;;;;;;;7.20;1.70;;;31.50;75.10;;;;;;4947806;28;20031;-69
2024/01/24 02:04:40;;;;;;;6.90;1.40;;;32.30;73.40;;;;;;4939813;28;20028;-69
2024/01/24 02:07:08;;;;;;;5.75;1.30;;;32.90;73.20;;;;;;4937010;28;20046;-69
2024/01/24 02:09:36;;;;;;;6.68;1.20;;;33.30;71.80;;;;;;4934588;28;20039;-69
2024/01/24 02:12:03;;;;;;;8.40;1.75;;;33.40;71.30;;;;;;4936268;28;20043;-68
2024/01/24 02:14:31;;;;;;;4.85;1.42;;;33.50;69.70;;;;;;4937649;28;20454;-69
2024/01/24 02:16:59;;;;;;;4.20;1.20;;;33.80;72.60;;;;;;4945244;28;20066;-68
2024/01/24 02:19:27;;;;;;;6.90;1.92;;;33.70;69.30;;;;;;4937454;28;20046;-69
2024/01/24 02:21:55;;;;;;;6.22;1.60;;;33.70;70.10;;;;;;4936805;28;20039;-70
2024/01/24 02:24:23;;;;;;;6.20;1.63;;;33.70;68.80;;;;;;4937878;28;20036;-70
2024/01/24 02:26:51;;;;;;;3.97;1.33;;;34.20;70.20;;;;;;4944886;28;20041;-70
2024/01/24 02:29:18;;;;;;;4.57;1.15;;;34.50;69.40;;;;;;4945156;28;20492;-69
2024/01/24 02:31:49;;;;;;;5.07;1.50;;;34.40;68.50;;;;;;4933065;28;20123;-69
2024/01/24 02:34:20;;;;;;;4.43;1.50;;;33.80;70.30;;;;;;4946983;28;20110;-69
2024/01/24 02:36:47;;;;;;;7.70;1.55;;;33.60;69.00;;;;;;4941564;28;20035;-69
2024/01/24 02:39:17;;;;;;;5.95;1.98;;;33.70;69.80;;;;;;4942860;28;20038;-69
2024/01/24 02:41:46;;;;;;;6.88;1.40;;;33.70;68.90;;;;;;4939684;28;20074;-70
2024/01/24 02:44:14;;;;;;;6.10;1.25;;;34.00;67.70;;;;;;4942819;28;20067;-70
2024/01/24 02:46:42;;;;;;;6.00;1.75;;;33.90;67.90;;;;;;4956769;28;20036;-69
2024/01/24 02:49:09;;;;;;;4.30;1.50;;;33.90;68.00;;;;;;4940934;28;20122;-69
2024/01/24 02:51:37;;;;;;;3.58;1.38;;;33.80;68.20;;;;;;4948726;28;20031;-69
2024/01/24 02:54:04;;;;;;;10.77;1.80;;;33.80;70.50;;;;;;4942939;28;20075;-71
2024/01/24 02:56:33;;;;;;;5.15;1.65;;;33.90;68.10;;;;;;4937031;28;20417;-69
2024/01/24 02:59:01;;;;;;;4.35;1.23;;;33.80;68.30;;;;;;4941944;28;20381;-69
2024/01/24 03:01:31;;;;;;;5.20;1.55;;;33.90;68.90;;;;;;4940863;28;20053;-70
2024/01/24 03:03:58;;;;;;;8.02;1.60;;;33.90;68.80;;;;;;4942140;28;20991;-69
2024/01/24 03:06:26;;;;;;;4.57;1.30;;;33.80;67.50;;;;;;4941700;28;20031;-69
2024/01/24 03:08:58;;;;;;;6.03;1.40;;;33.60;68.20;;;;;;4941338;28;20110;-70
2024/01/24 03:11:26;;;;;;;5.38;1.58;;;33.30;68.60;;;;;;4939909;28;20487;-70
2024/01/24 03:13:53;;;;;;;7.45;1.67;;;33.10;69.20;;;;;;4941091;28;20039;-70
2024/01/24 03:16:21;;;;;;;5.85;1.27;;;32.90;69.50;;;;;;4939958;28;20211;-70
2024/01/24 03:18:48;;;;;;;3.88;1.63;;;32.60;69.50;;;;;;4943163;28;20027;-69
2024/01/24 03:21:17;;;;;;;4.32;1.65;;;32.50;69.60;;;;;;4935629;29;20032;-70
2024/01/24 03:23:45;;;;;;;3.55;1.42;;;32.70;69.60;;;;;;4940473;28;20077;-69
2024/01/24 03:26:14;;;;;;;8.30;1.83;;;32.80;70.30;;;;;;4936620;28;20078;-69
2024/01/24 03:28:42;;;;;;;3.92;1.33;;;32.50;70.70;;;;;;4946969;28;20035;-71
2024/01/24 03:31:10;;;;;;;7.43;1.50;;;32.20;70.30;;;;;;4942688;28;20901;-69
2024/01/24 03:33:38;;;;;;;5.53;1.45;;;32.10;71.50;;;;;;4944934;28;20083;-69
2024/01/24 03:36:05;;;;;;;6.40;1.83;;;32.10;71.20;;;;;;4939273;28;20023;-68
2024/01/24 03:38:33;;;;;;;3.90;1.50;;;32.10;71.70;;;;;;4942449;28;20035;-70
2024/01/24 03:41:00;;;;;;;4.90;1.33;;;32.00;72.20;;;;;;4943305;28;20564;-69
2024/01/24 03:43:28;;;;;;;5.20;1.38;;;32.00;72.20;;;;;;4940777;28;20034;-70
2024/01/24 03:45:55;;;;;;;5.43;1.20;;;32.00;72.70;;;;;;4939992;28;20135;-69
2024/01/24 03:48:23;;;;;;;6.72;1.83;;;32.00;72.30;;;;;;4939433;28;20047;-69
2024/01/24 03:50:51;;;;;;;5.60;1.52;;;32.00;72.50;;;;;;4938339;28;20125;-70
2024/01/24 03:53:19;;;;;;;6.85;1.60;;;32.00;72.10;;;;;;4939439;28;20059;-70
2024/01/24 03:55:47;;;;;;;4.95;1.67;;;32.30;71.60;;;;;;4936683;28;20031;-72
2024/01/24 03:58:15;;;;;;;9.07;1.85;;;32.20;72.30;;;;;;4941449;28;20027;-70
2024/01/24 04:00:43;;;;;;;5.55;1.90;;;32.30;72.30;;;;;;4940935;28;20067;-69
2024/01/24 04:03:10;;;;;;;6.95;1.80;;;32.40;72.90;;;;;;4952951;28;20495;-70
2024/01/24 04:05:37;;;;;;;7.15;1.65;;;32.50;72.30;;;;;;4937424;28;20035;-70
2024/01/24 04:08:06;;;;;;;5.25;1.70;;;32.60;71.30;;;;;;4946311;28;20054;-70
2024/01/24 04:10:33;;;;;;;4.47;2.08;;;32.70;71.00;;;;;;4945759;29;20082;-69
2024/01/24 04:13:00;;;;;;;5.13;1.30;;;32.70;71.20;;;;;;4948309;28;20058;-70
2024/01/24 04:15:28;;;;;;;8.68;2.17;;;32.70;70.90;;;;;;4943554;29;20028;-69
2024/01/24 04:17:56;;;;;;;3.35;1.45;;;32.70;70.80;;;;;;4939475;29;21136;-70
2024/01/24 04:20:24;;;;;;;3.72;1.50;;;32.60;70.90;;;;;;4941793;29;20019;-71
2024/01/24 04:22:52;;;;;;;4.03;1.75;;;32.50;70.90;;;;;;4939119;28;20113;-70
2024/01/24 04:25:19;;;;;;;5.88;1.40;;;32.60;71.00;;;;;;4965432;28;20438;-69
2024/01/24 04:27:48;;;;;;;6.18;1.60;;;32.40;70.80;;;;;;4950561;29;20035;-70
2024/01/24 04:30:15;;;;;;;2.63;1.23;;;32.40;71.80;;;;;;4943775;28;20039;-70
2024/01/24 04:32:43;;;;;;;4.10;1.27;;;32.30;71.40;;;;;;4937885;28;20030;-69
2024/01/24 04:35:10;;;;;;;6.30;1.73;;;32.30;70.90;;;;;;4943872;28;20581;-70
2024/01/24 04:37:37;;;;;;;6.15;1.58;;;32.20;71.80;;;;;;4945678;29;20541;-71
2024/01/24 04:40:06;;;;;;;3.53;1.60;;;32.20;71.20;;;;;;4944137;29;20112;-70
2024/01/24 04:42:34;;;;;;;5.18;1.83;;;32.20;71.50;;;;;;4938906;29;20024;-69
2024/01/24 04:45:01;;;;;;;5.00;1.33;;;32.10;71.70;;;;;;4942026;28;20024;-69
2024/01/24 04:47:28;;;;;;;3.35;1.42;;;32.10;71.50;;;;;;4941219;29;20063;-68
2024/01/24 04:49:56;;;;;;;8.02;2.17;;;32.00;71.70;;;;;;4936444;29;20125;-69
2024/01/24 04:52:23;;;;;;;6.63;1.83;;;32.10;72.00;;;;;;4942871;29;20130;-70
2024/01/24 04:54:51;;;;;;;6.53;1.60;;;32.10;72.00;;;;;;4947810;28;20027;-69
2024/01/24 04:57:18;;;;;;;8.63;1.77;;;32.10;72.30;;;;;;4937823;28;20036;-70
2024/01/24 04:59:46;;;;;;;6.10;1.98;;;32.00;72.20;;;;;;4941626;29;20031;-69
2024/01/24 05:02:13;;;;;;;4.80;1.30;;;32.10;72.40;;;;;;4938755;29;20461;-70
2024/01/24 05:04:40;;;;;;;3.30;1.63;;;32.20;71.70;;;;;;4935595;29;20118;-69
2024/01/24 05:07:08;;;;;;;5.57;1.35;;;32.30;71.70;;;;;;4941548;29;20040;-70
2024/01/24 05:09:36;;;;;;;5.03;1.30;;;32.20;72.50;;;;;;4948569;29;20038;-69
2024/01/24 05:12:03;;;;;;;5.65;1.95;;;32.10;72.90;;;;;;4938227;28;21188;-70
2024/01/24 05:14:31;;;;;;;8.00;1.70;;;32.20;72.60;;;;;;4944999;29;20074;-70
2024/01/24 05:16:58;;;;;;;7.10;1.77;;;32.20;72.40;;;;;;4945330;28;20059;-71
2024/01/24 05:19:25;;;;;;;6.05;1.50;;;32.20;72.60;;;;;;4943204;28;20031;-69
2024/01/24 05:21:53;;;;;;;4.95;1.60;;;32.20;72.10;;;;;;4943991;29;20039;-70
2024/01/24 05:24:20;;;;;;;5.63;1.77;;;32.10;72.70;;;;;;4935341;29;20369;-70
2024/01/24 05:26:47;;;;;;;3.22;1.63;;;32.10;73.20;;;;;;4940164;28;20343;-70
2024/01/24 05:29:15;;;;;;;7.15;2.03;;;32.10;73.00;;;;;;4945325;29;20046;-70
2024/01/24 05:31:42;;;;;;;4.97;1.52;;;32.00;73.90;;;;;;4938946;29;20090;-70
2024/01/24 05:34:10;;;;;;;3.97;1.50;;;32.00;73.80;;;;;;4940561;28;20035;-70
2024/01/24 05:36:37;;;;;;;5.95;2.20;;;32.10;73.60;;;;;;4938791;28;20035;-71
2024/01/24 05:39:07;;;;;;;5.18;1.67;;;32.40;73.40;;;;;;4941076;29;20081;-70
2024/01/24 05:41:35;;;;;;;7.32;1.80;;;32.30;73.50;;;;;;4943096;28;20063;-70
2024/01/24 05:44:02;;;;;;;6.40;1.63;;;32.10;74.10;;;;;;4939283;28;20062;-70
2024/01/24 05:46:30;;;;;;;4.65;1.25;;;32.00;74.30;;;;;;4940541;28;20058;-70
2024/01/24 05:48:58;;;;;;;5.05;1.42;;;32.10;74.40;;;;;;4936757;28;20047;-70
2024/01/24 05:51:25;;;;;;;4.50;1.77;;;32.00;74.00;;;;;;4938226;28;20040;-70
2024/01/24 05:53:53;;;;;;;4.93;1.85;;;32.00;75.20;;;;;;4941240;28;20059;-70
2024/01/24 05:56:20;;;;;;;5.70;1.60;;;31.90;75.70;;;;;;4936432;28;20026;-69
2024/01/24 05:58:47;;;;;;;6.70;1.70;;;31.90;76.50;;;;;;4938003;28;20436;-70
2024/01/24 06:01:14;;;;;;;5.45;1.80;;;31.90;76.10;;;;;;4940494;28;20032;-69
2024/01/24 06:03:42;;;;;;;5.32;1.92;;;31.90;75.70;;;;;;4944757;28;20045;-69
2024/01/24 06:06:09;;;;;;;7.35;1.80;;;31.90;75.60;;;;;;4946171;28;20023;-69
2024/01/24 06:08:37;;;;;;;4.15;1.30;;;31.90;76.60;;;;;;4944628;29;20396;-70
2024/01/24 06:11:04;;;;;;;5.47;1.92;;;31.80;76.80;;;;;;4943703;28;20063;-71
2024/01/24 06:13:32;;;;;;;7.43;1.85;;;31.80;77.20;;;;;;4946559;29;20564;-70
2024/01/24 06:15:59;;;;;;;5.10;1.77;;;31.80;76.50;;;;;;4951607;28;20031;-71
2024/01/24 06:18:26;;;;;;;6.68;1.67;;;31.80;77.50;;;;;;4940118;28;20020;-71
2024/01/24 06:20:54;;;;;;;6.97;2.65;;;31.80;77.80;;;;;;4940196;28;20560;-70
2024/01/24 06:23:21;;;;;;;5.32;2.00;;;31.90;78.00;;;;;;4948855;28;20114;-69
2024/01/24 06:25:48;;;;;;;5.68;2.03;;;32.10;76.90;;;;;;4948641;28;20035;-70
2024/01/24 06:28:16;;;;;;;7.15;2.00;;;32.10;77.10;;;;;;4949708;28;20054;-71
2024/01/24 06:30:43;;;;;;;5.78;1.67;;;32.30;76.30;;;;;;4943577;28;20382;-70
2024/01/24 06:33:12;;;;;;;5.80;1.75;;;32.50;76.10;;;;;;4945846;28;20035;-69
2024/01/24 06:35:39;;;;;;;6.60;2.05;;;32.40;76.20;;;;;;4941579;28;20593;-71
2024/01/24 06:38:06;;;;;;;9.20;2.15;;;32.50;75.90;;;;;;4945387;28;20086;-70
2024/01/24 06:40:34;;;;;;;5.90;1.77;;;32.50;75.90;;;;;;4949701;28;20042;-70
2024/01/24 06:43:01;;;;;;;5.88;1.80;;;32.50;75.90;;;;;;4946423;28;20341;-71
2024/01/24 06:45:29;;;;;;;7.00;1.75;;;32.50;76.00;;;;;;4942107;28;20038;-71
2024/01/24 06:47:57;;;;;;;7.00;2.10;;;32.50;76.00;;;;;;4939457;28;20063;-71
2024/01/24 06:50:25;;;;;;;8.77;2.00;;;32.30;76.50;;;;;;4943908;28;20098;-70
2024/01/24 06:52:53;;;;;;;5.53;1.58;;;32.20;77.10;;;;;;4942249;28;20051;-71
2024/01/24 06:55:20;;;;;;;7.10;2.15;;;32.30;77.30;;;;;;4941589;29;20027;-70
2024/01/24 06:57:47;;;;;;;10.05;2.25;;;32.20;77.50;;;;;;4951250;28;20095;-69
2024/01/24 07:00:15;;;;;;;8.48;2.15;;;32.30;77.70;;;;;;4938333;28;20036;-70
2024/01/24 07:02:42;;;;;;;7.72;2.17;;;32.10;78.30;;;;;;4946575;28;20036;-70
2024/01/24 07:05:10;;;;;;;8.60;1.90;;;32.30;78.80;;;;;;4939060;28;20074;-70
2024/01/24 07:07:38;;;;;;;13.27;2.88;;;32.30;78.80;;;;;;4947878;28;20035;-70
2024/01/24 07:10:10;;;;;;;9.73;2.30;;;32.00;79.50;;;;;;4946825;28;20054;-72
2024/01/24 07:12:44;;;;;;;6.15;2.60;;;32.10;79.80;;;;;;4948408;28;20046;-70
2024/01/24 07:15:18;;;;;;;10.07;2.53;;;32.00;80.40;;;;;;4943809;28;20027;-70
2024/01/24 07:17:46;;;;;;;7.15;2.38;;;31.90;81.00;;;;;;4941941;28;20464;-70
2024/01/24 07:20:15;;;;;;;9.25;2.35;;;32.00;81.20;;;;;;4941994;28;20111;-70
2024/01/24 07:22:42;;;;;;;9.07;2.30;;;31.90;81.60;;;;;;4942924;28;20035;-70
2024/01/24 07:25:10;;;;;;;7.50;2.45;;;31.90;81.40;;;;;;4942635;28;20031;-70
2024/01/24 07:27:37;;;;;;;7.45;2.15;;;31.90;82.10;;;;;;4941131;29;20106;-70
2024/01/24 07:30:05;;;;;;;11.90;2.30;;;31.90;82.40;;;;;;4937137;28;20075;-70
2024/01/24 07:32:33;;;;;;;6.43;2.40;;;31.90;83.10;;;;;;4940403;28;20477;-70
2024/01/24 07:35:01;;;;;;;5.40;1.67;;;31.80;83.60;;;;;;4937634;28;20028;-70
2024/01/24 07:37:28;;;;;;;6.50;2.30;;;31.80;84.10;;;;;;4946637;28;20465;-70
2024/01/24 07:39:56;;;;;;;6.10;2.47;;;31.80;84.70;;;;;;4941109;28;20536;-70
2024/01/24 07:42:23;;;;;;;8.88;2.40;;;31.70;84.60;;;;;;4946193;29;20028;-70
2024/01/24 07:44:50;;;;;;;9.20;2.00;;;31.70;85.10;;;;;;4944237;28;20527;-70
2024/01/24 07:47:20;;;;;;;9.18;2.13;;;31.80;84.40;;;;;;4946788;28;20032;-70
2024/01/24 07:49:48;;;;;;;7.90;2.47;;;31.70;85.00;;;;;;4944397;28;20051;-70
2024/01/24 07:52:15;;;;;;;7.30;1.98;;;31.50;85.40;;;;;;4942440;28;20370;-70
2024/01/24 07:54:43;;;;;;;8.38;2.28;;;31.60;86.00;;;;;;4942882;28;20039;-71
2024/01/24 07:57:10;;;;;;;7.13;2.00;;;31.50;85.40;;;;;;4943374;28;20071;-70
2024/01/24 07:59:38;;;;;;;10.95;2.65;;;31.50;85.80;;;;;;4943741;28;20039;-71
2024/01/24 08:02:06;;;;;;;9.38;2.35;;;31.40;86.20;;;;;;4940210;28;20023;-70
2024/01/24 08:04:34;;;;;;;6.97;2.35;;;31.50;86.00;;;;;;4945569;28;20477;-70
2024/01/24 08:07:04;;;;;;;4.38;1.95;;;31.40;86.60;;;;;;4943112;28;20054;-71
2024/01/24 08:09:32;;;;;;;10.00;2.20;;;31.30;86.70;;;;;;4944192;28;20047;-70
2024/01/24 08:11:59;;;;;;;6.18;2.08;;;31.30;87.30;;;;;;4935245;29;20032;-70
2024/01/24 08:14:27;;;;;;;6.97;1.98;;;31.20;87.90;;;;;;4949521;28;20037;-70
2024/01/24 08:17:21;;;;;;;4.63;2.35;;;31.20;87.60;;;;;;4943794;28;20038;-70
2024/01/24 08:19:49;;;;;;;5.03;1.90;;;31.30;87.10;;;;;;4937993;28;20039;-70
2024/01/24 08:22:16;;;;;;;6.90;2.03;;;31.30;87.10;;;;;;4954751;28;20348;-70
2024/01/24 08:24:44;;;;;;;9.20;1.75;;;31.20;87.50;;;;;;4941157;28;20031;-70
2024/01/24 08:27:11;;;;;;;6.22;2.17;;;31.10;88.00;;;;;;4947577;28;20078;-70
2024/01/24 08:29:38;;;;;;;6.88;2.28;;;31.10;88.60;;;;;;4948276;28;20039;-69
2024/01/24 08:32:06;;;;;;;8.40;2.45;;;31.00;88.80;;;;;;4944814;28;20575;-69
2024/01/24 08:34:35;;;;;;;9.55;2.20;;;30.90;89.00;;;;;;4944504;28;20059;-70
2024/01/24 08:37:02;;;;;;;10.13;2.00;;;30.90;89.30;;;;;;4944151;28;20032;-70
2024/01/24 08:39:30;;;;;;;5.22;1.83;;;30.80;89.30;;;;;;4941082;28;20756;-70
2024/01/24 08:41:57;;;;;;;7.25;2.35;;;30.90;89.30;;;;;;4935959;29;20054;-70
2024/01/24 08:44:24;;;;;;;9.63;2.20;;;30.90;89.20;;;;;;4940855;28;20466;-70
2024/01/24 08:46:51;;;;;;;8.10;2.10;;;30.70;89.50;;;;;;4944479;28;20114;-70
2024/01/24 08:49:19;;;;;;;8.63;2.45;;;30.60;89.90;;;;;;4946402;28;20035;-70
2024/01/24 08:51:46;;;;;;;8.90;2.35;;;30.60;89.70;;;;;;4939216;28;20051;-70
2024/01/24 08:54:14;;;;;;;10.27;2.33;;;30.50;89.80;;;;;;4945885;28;20118;-70
2024/01/24 08:56:42;;;;;;;8.18;2.28;;;30.40;90.00;;;;;;4942659;28;20055;-70
2024/01/24 08:59:09;;;;;;;5.20;2.75;;;30.40;90.10;;;;;;4943816;28;20036;-69
2024/01/24 09:01:37;;;;;;;7.15;2.47;;;30.30;90.20;;;;;;4941210;28;20046;-69
2024/01/24 09:04:05;;;;;;;5.80;2.50;;;30.20;90.40;;;;;;4936415;28;20027;-69
2024/01/24 09:06:32;;;;;;;7.80;2.58;;;30.10;90.60;;;;;;4941865;28;20038;-69
2024/01/24 09:08:59;;;;;;;7.72;2.33;;;30.00;90.80;;;;;;4958923;28;20079;-69
2024/01/24 09:11:26;;;;;;;5.13;2.40;;;29.90;90.90;;;;;;4943403;28;20824;-69
2024/01/24 09:13:54;;;;;;;5.00;2.05;;;29.90;91.00;;;;;;4940741;28;20036;-69
2024/01/24 09:16:21;;;;;;;7.65;2.47;;;29.90;91.20;;;;;;4937219;28;20113;-69
2024/01/24 09:18:48;;;;;;;4.78;2.20;;;29.80;91.50;;;;;;4940929;28;20445;-69
2024/01/24 09:21:16;;;;;;;6.28;2.22;;;29.70;91.40;;;;;;4939424;28;20027;-68
2024/01/24 09:23:43;;;;;;;5.80;2.05;;;29.70;91.40;;;;;;4942623;28;20038;-69
2024/01/24 09:26:10;;;;;;;7.15;2.67;;;29.70;91.50;;;;;;4943961;28;20094;-69
2024/01/24 09:28:38;;;;;;;7.45;2.33;;;29.60;91.90;;;;;;4934529;28;20051;-68
2024/01/24 09:31:05;;;;;;;8.07;2.58;;;29.60;92.60;;;;;;4937403;28;20053;-68
2024/01/24 09:33:33;;;;;;;7.75;3.00;;;29.80;92.70;;;;;;4942505;28;20030;-69
2024/01/24 09:36:00;;;;;;;4.78;2.40;;;29.70;92.70;;;;;;4944348;28;20032;-70
2024/01/24 09:38:27;;;;;;;6.03;2.20;;;29.50;93.00;;;;;;4934863;28;20028;-69
2024/01/24 09:41:01;;;;;;;4.85;2.22;;;29.40;93.20;;;;;;4941367;28;20039;-69
2024/01/24 09:43:39;;;;;;;13.07;2.83;;;29.30;93.30;;;;;;4935283;28;20457;-70
2024/01/24 09:46:12;;;;;;;6.97;2.63;;;29.20;93.50;;;;;;4940352;29;20066;-69
2024/01/24 09:48:41;;;;;;;13.05;2.83;;;29.20;93.60;;;;;;4941917;28;20051;-69
2024/01/24 09:51:09;;;;;;;17.48;3.58;;;29.30;93.70;;;;;;4940191;29;20024;-69
2024/01/24 09:53:39;;;;;;;7.13;3.45;;;29.40;93.70;;;;;;4934793;28;20062;-69
2024/01/24 09:56:08;;;;;;;9.07;3.03;;;29.50;93.50;;;;;;4938444;28;20027;-69
2024/01/24 09:58:35;;;;;;;16.10;3.88;;;29.40;93.40;;;;;;4943267;28;20035;-69
2024/01/24 10:01:05;;;;;;;16.48;3.92;;;29.30;93.90;;;;;;4935600;28;20087;-69
2024/01/24 10:03:33;;;;;;;16.70;3.78;;;29.20;94.40;;;;;;4943214;29;20801;-69
2024/01/24 10:06:01;;;;;;;15.05;3.90;;;29.20;94.80;;;;;;4946432;28;20039;-69
2024/01/24 10:08:29;;;;;;;14.15;3.70;;;29.10;95.30;;;;;;4936224;28;20130;-69
2024/01/24 10:10:56;;;;;;;17.55;3.60;;;28.90;95.70;;;;;;4941577;28;20551;-69
2024/01/24 10:13:26;;;;;;;14.00;3.75;;;28.90;96.00;;;;;;4942699;28;20027;-69
2024/01/24 10:15:56;;;;;;;13.77;4.32;;;28.70;96.50;;;;;;4942670;28;20446;-69
2024/01/24 10:18:25;;;;;;;22.60;4.35;;;28.60;96.90;;;;;;4942715;29;20027;-69
2024/01/24 10:20:54;;;;;;;28.52;4.80;;;28.50;97.50;;;;;;4937996;28;20039;-68
2024/01/24 10:23:22;;;;;;;26.05;4.45;;;28.50;97.70;;;;;;4934908;28;20470;-69
2024/01/24 10:25:50;;;;;;;20.73;3.67;;;28.30;98.00;;;;;;4939226;28;20024;-68
2024/01/24 10:28:17;;;;;;;23.08;5.10;;;28.30;98.40;;;;;;4942347;28;20027;-69
2024/01/24 10:30:47;;;;;;;21.80;4.90;;;28.40;98.40;;;;;;4938258;28;20035;-69
2024/01/24 10:33:15;;;;;;;19.38;4.18;;;28.40;98.60;;;;;;4944284;28;20023;-69
2024/01/24 10:35:45;;;;;;;35.15;4.93;;;28.60;98.50;;;;;;4939822;28;20028;-70
2024/01/24 10:38:13;;;;;;;17.25;3.72;;;28.70;98.50;;;;;;4937933;28;20375;-70
2024/01/24 10:40:41;;;;;;;17.17;3.70;;;28.60;98.80;;;;;;4947028;28;20497;-69
2024/01/24 10:43:14;;;;;;;14.43;2.90;;;28.60;98.90;;;;;;4945207;28;20421;-69
2024/01/24 10:45:47;;;;;;;10.85;3.25;;;28.60;98.90;;;;;;4935599;28;20114;-69
2024/01/24 10:48:15;;;;;;;14.68;3.42;;;28.60;99.50;;;;;;4946898;28;20387;-73
2024/01/24 10:50:43;;;;;;;11.90;2.75;;;28.50;99.50;;;;;;4944291;29;20035;-69
2024/01/24 10:53:12;;;;;;;15.02;3.22;;;28.30;99.40;;;;;;4948625;28;20445;-69
2024/01/24 10:55:42;;;;;;;16.23;3.53;;;28.20;99.70;;;;;;4952576;28;20370;-70
2024/01/24 10:58:19;;;;;;;16.92;3.22;;;28.40;99.70;;;;;;4949367;29;20034;-68
2024/01/24 11:00:52;;;;;;;;;;;28.50;99.60;;;;;;4952723;28;20474;-70
2024/01/24 11:03:22;;;;;;;12.32;3.28;;;28.40;99.60;;;;;;4940095;29;19910;-69
2024/01/24 11:05:55;;;;;;;17.98;3.70;;;28.40;99.80;;;;;;4949745;29;20062;-69
2024/01/24 11:09:22;;;;;;;12.75;3.13;;;28.30;99.70;;;;;;4944502;29;20034;-69
2024/01/24 11:11:55;;;;;;;13.05;2.92;;;28.20;99.60;;;;;;4922511;29;20032;-70
2024/01/24 11:14:36;;;;;;;10.23;2.65;;;28.20;99.90;;;;;;4938164;29;20110;-69
2024/01/24 11:17:06;;;;;;;10.10;2.75;;;28.20;99.90;;;;;;4937412;29;20063;-68
2024/01/24 11:19:33;;;;;;;15.20;3.50;;;28.20;99.90;;;;;;4937809;29;20042;-69
2024/01/24 11:22:09;;;;;;;12.48;2.78;;;28.20;99.90;;;;;;4949736;28;20027;-68
2024/01/24 11:24:46;;;;;;;15.82;3.83;;;28.20;99.90;;;;;;4948120;29;20015;-69
2024/01/24 11:27:35;;;;;;;11.80;2.83;;;28.20;99.90;;;;;;4947903;28;20039;-70
2024/01/24 11:30:18;;;;;;;12.27;3.25;;;28.20;99.90;;;;;;4949716;28;20178;-68
2024/01/24 11:32:51;;;;;;;10.43;2.70;;;28.00;99.90;;;;;;4942183;28;20484;-70
2024/01/24 11:35:37;;;;;;;15.95;3.58;;;27.90;99.90;;;;;;4939465;28;20453;-70
2024/01/24 11:38:28;;;;;;;14.03;2.73;;;27.80;99.90;;;;;;4940109;28;20035;-70
2024/01/24 11:40:58;;;;;;;12.88;2.78;;;27.80;99.90;;;;;;4937801;28;20481;-70
2024/01/24 11:43:26;;;;;;;12.07;3.30;;;27.80;99.90;;;;;;4936065;28;20051;-70
2024/01/24 11:46:00;;;;;;;16.15;3.30;;;27.70;99.90;;;;;;4948732;28;20042;-69
2024/01/24 11:48:27;;;;;;;13.27;3.10;;;27.60;99.90;;;;;;4937211;29;20500;-70
2024/01/24 11:50:59;;;;;;;12.60;3.20;;;27.50;99.90;;;;;;4944652;28;20032;-67
2024/01/24 11:53:27;;;;;;;10.85;3.13;;;27.40;99.90;;;;;;4938949;28;20046;-70
2024/01/24 11:55:59;;;;;;;16.20;3.10;;;27.40;99.90;;;;;;4942036;28;20028;-70
2024/01/24 11:58:28;;;;;;;13.90;3.72;;;27.40;99.90;;;;;;4939701;28;20115;-70
2024/01/24 12:00:55;;;;;;;11.98;3.28;;;27.30;99.90;;;;;;4945340;28;20027;-71
2024/01/24 12:03:23;;;;;;;10.00;3.25;;;27.30;99.90;;;;;;4937670;28;20031;-70
2024/01/24 12:05:51;;;;;;;16.70;3.58;;;27.30;99.90;;;;;;4942943;28;20062;-70
2024/01/24 12:08:19;;;;;;;12.80;3.28;;;27.30;99.90;;;;;;4945033;28;20031;-70
2024/01/24 12:10:46;;;;;;;12.80;3.40;;;27.30;99.90;;;;;;4945234;28;20047;-70
2024/01/24 12:13:19;;;;;;;16.33;3.75;;;27.30;99.90;;;;;;4942772;28;20030;-70
2024/01/24 12:15:47;;;;;;;17.88;3.70;;;27.50;99.90;;;;;;4937145;28;20110;-68
2024/01/24 12:18:18;;;;;;;14.30;3.40;;;27.40;99.90;;;;;;4935957;28;20031;-68
2024/01/24 12:20:52;;;;;;;18.00;3.85;;;27.40;99.90;;;;;;4941929;29;20037;-68
2024/01/24 12:23:20;;;;;;;11.18;3.45;;;27.20;99.90;;;;;;4935099;28;20039;-68
2024/01/24 12:25:48;;;;;;;17.88;3.85;;;27.10;99.90;;;;;;4942012;28;20042;-69
2024/01/24 12:28:16;;;;;;;12.95;3.08;;;27.10;99.90;;;;;;4941019;28;20082;-71
2024/01/24 12:30:48;;;;;;;12.05;3.15;;;27.00;99.90;;;;;;4943762;28;20146;-69
2024/01/24 12:33:19;;;;;;;14.40;3.47;;;27.00;99.90;;;;;;4937487;29;20075;-69
2024/01/24 12:35:47;;;;;;;14.90;3.50;;;27.00;99.90;;;;;;4944267;28;20031;-70
2024/01/24 12:38:15;;;;;;;8.10;3.17;;;27.00;99.90;;;;;;4940019;28;20484;-69
2024/01/24 12:40:52;;;;;;;13.88;3.30;;;26.90;99.90;;;;;;4943854;28;20035;-69
2024/01/24 12:43:21;;;;;;;11.32;3.72;;;27.40;99.90;;;;;;4942206;28;20028;-69
2024/01/24 12:45:49;;;;;;;13.18;3.38;;;27.40;99.90;;;;;;4940759;28;20110;-69
2024/01/24 12:48:16;;;;;;;13.18;3.28;;;27.30;99.90;;;;;;4935755;28;20403;-69
2024/01/24 12:50:44;;;;;;;14.65;3.83;;;27.20;99.90;;;;;;4941613;28;20031;-69
2024/01/24 12:53:11;;;;;;;9.60;3.17;;;27.20;99.90;;;;;;4941075;28;20884;-69